createdAt,value
2023-06-07T00:01:26.995Z,99176.41
2023-06-07T00:03:55.242Z,99176.46
2023-06-07T00:06:23.365Z,99172.38
2023-06-07T00:08:51.500Z,99169.04
2023-06-07T00:11:21.698Z,99167.06
2023-06-07T00:13:54.266Z,99171.27
2023-06-07T00:16:23.821Z,99168.39
2023-06-07T00:18:52.323Z,99167.71
2023-06-07T00:21:21.253Z,99167.69
2023-06-07T00:23:49.535Z,99169.44
2023-06-07T00:26:17.749Z,99171.41
2023-06-07T00:28:47.449Z,99172.04
2023-06-07T00:31:15.533Z,99176.96
2023-06-07T00:33:43.564Z,99174.79
2023-06-07T00:36:11.527Z,99173.56
2023-06-07T00:38:39.486Z,99173.63
2023-06-07T00:41:07.381Z,99169.11
2023-06-07T00:43:35.713Z,99170.55
2023-06-07T00:46:06.681Z,99167.98
2023-06-07T00:48:35.581Z,99166.84
2023-06-07T00:51:04.039Z,99166.48
2023-06-07T00:53:32.827Z,99167.69
2023-06-07T00:56:00.957Z,99164.54
2023-06-07T00:58:29.264Z,99165.63
2023-06-07T01:00:59.510Z,99160.08
2023-06-07T01:03:28.569Z,99160.40
2023-06-07T01:05:59.611Z,99160.79
2023-06-07T01:08:27.910Z,99159.35
2023-06-07T01:10:57.307Z,99160.00
2023-06-07T01:13:25.899Z,99156.93
2023-06-07T01:15:53.859Z,99156.40
2023-06-07T01:18:25.633Z,99157.02
2023-06-07T01:20:56.665Z,99157.80
2023-06-07T01:23:34.875Z,99157.14
2023-06-07T01:26:03.531Z,99156.92
2023-06-07T01:28:35.116Z,99151.66
2023-06-07T01:31:03.740Z,99151.05
2023-06-07T01:33:34.587Z,99148.98
2023-06-07T01:36:05.561Z,99145.07
2023-06-07T01:38:34.689Z,99145.00
2023-06-07T01:41:03.077Z,99146.41
2023-06-07T01:43:31.330Z,99148.86
2023-06-07T01:45:59.807Z,99153.11
2023-06-07T01:48:27.769Z,99153.75
2023-06-07T01:50:55.818Z,99154.25
2023-06-07T01:53:23.828Z,99155.25
2023-06-07T01:56:01.340Z,99155.17
2023-06-07T01:58:38.892Z,99155.48
2023-06-07T02:01:33.133Z,99157.51
2023-06-07T02:04:02.578Z,99156.48
2023-06-07T02:06:33.885Z,99159.73
2023-06-07T02:09:13.680Z,99159.62
2023-06-07T02:11:42.858Z,99161.96
2023-06-07T02:14:11.213Z,99162.01
2023-06-07T02:16:39.350Z,99161.86
2023-06-07T02:19:12.472Z,99166.40
2023-06-07T02:21:52.718Z,99169.20
2023-06-07T02:24:20.869Z,99172.73
2023-06-07T02:26:49.095Z,99176.31
2023-06-07T02:29:17.164Z,99176.90
2023-06-07T02:31:45.141Z,99179.22
2023-06-07T02:34:13.248Z,99181.17
2023-06-07T02:36:43.575Z,99183.58
2023-06-07T02:39:12.774Z,99183.80
2023-06-07T02:41:41.228Z,99184.90
2023-06-07T02:44:12.219Z,99185.02
2023-06-07T02:46:40.115Z,99183.23
2023-06-07T02:49:08.740Z,99182.55
2023-06-07T02:51:38.838Z,99181.39
2023-06-07T02:54:10.145Z,99177.09
2023-06-07T02:56:38.573Z,99179.24
2023-06-07T02:59:06.590Z,99187.30
2023-06-07T03:01:39.339Z,99189.23
2023-06-07T03:04:08.164Z,99193.78
2023-06-07T03:06:36.294Z,99198.88
2023-06-07T03:09:16.935Z,99196.52
2023-06-07T03:11:45.554Z,99198.54
2023-06-07T03:14:14.634Z,99198.93
2023-06-07T03:16:46.076Z,99199.48
2023-06-07T03:19:15.525Z,99198.34
2023-06-07T03:21:45.762Z,99195.63
2023-06-07T03:24:15.655Z,99195.11
2023-06-07T03:26:43.753Z,99199.16
2023-06-07T03:29:12.078Z,99200.23
2023-06-07T03:31:40.821Z,99203.36
2023-06-07T03:34:11.125Z,99204.74
2023-06-07T03:36:41.312Z,99205.42
2023-06-07T03:39:11.430Z,99204.63
2023-06-07T03:41:39.490Z,99204.94
2023-06-07T03:44:08.652Z,99200.86
2023-06-07T03:46:37.572Z,99202.51
2023-06-07T03:49:05.583Z,99205.63
2023-06-07T03:51:34.141Z,99201.41
2023-06-07T03:54:02.969Z,99205.48
2023-06-07T03:56:31.495Z,99204.89
2023-06-07T03:59:03.202Z,99204.06
2023-06-07T04:01:32.471Z,99205.84
2023-06-07T04:04:01.113Z,99208.07
2023-06-07T04:06:29.569Z,99211.95
2023-06-07T04:08:58.218Z,99211.96
2023-06-07T04:11:28.370Z,99209.88
2023-06-07T04:13:56.776Z,99204.52
2023-06-07T04:16:27.695Z,99204.80
2023-06-07T04:18:55.733Z,99200.77
2023-06-07T04:21:23.866Z,99203.34
2023-06-07T04:23:52.020Z,99200.36
2023-06-07T04:26:24.042Z,99200.55
2023-06-07T04:28:52.206Z,99202.87
2023-06-07T04:31:23.902Z,99203.87
2023-06-07T04:33:52.579Z,99204.23
2023-06-07T04:36:20.633Z,99206.94
2023-06-07T04:38:57.895Z,99208.05
2023-06-07T04:41:31.505Z,99211.12
2023-06-07T04:44:04.490Z,99215.37
2023-06-07T04:46:40.640Z,99212.30
2023-06-07T04:49:13.289Z,99209.02
2023-06-07T04:51:41.635Z,99206.34
2023-06-07T04:54:17.921Z,99208.20
2023-06-07T04:56:49.400Z,99208.81
2023-06-07T04:59:19.576Z,99202.27
2023-06-07T05:01:48.547Z,99206.84
2023-06-07T05:04:18.050Z,99207.02
2023-06-07T05:06:50.931Z,99207.92
2023-06-07T05:09:18.915Z,99209.26
2023-06-07T05:11:46.936Z,99212.17
2023-06-07T05:14:15.592Z,99214.60
2023-06-07T05:16:46.452Z,99212.83
2023-06-07T05:19:18.126Z,99209.92
2023-06-07T05:21:46.754Z,99210.80
2023-06-07T05:24:17.552Z,99212.92
2023-06-07T05:26:45.980Z,99213.86
2023-06-07T05:29:14.678Z,99213.56
2023-06-07T05:31:43.371Z,99217.39
2023-06-07T05:34:12.297Z,99219.77
2023-06-07T05:36:40.749Z,99221.36
2023-06-07T05:39:08.861Z,99227.05
2023-06-07T05:41:38.408Z,99229.21
2023-06-07T05:44:06.523Z,99228.86
2023-06-07T05:46:34.658Z,99230.33
2023-06-07T05:49:04.126Z,99229.20
2023-06-07T05:51:32.458Z,99231.26
2023-06-07T05:54:00.457Z,99229.55
2023-06-07T05:56:29.007Z,99227.20
2023-06-07T05:58:56.916Z,99228.42
2023-06-07T06:01:24.948Z,99226.05
2023-06-07T06:03:52.967Z,99223.71
2023-06-07T06:06:20.996Z,99217.84
2023-06-07T06:08:48.980Z,99220.35
2023-06-07T06:11:17.085Z,99221.30
2023-06-07T06:13:46.120Z,99221.89
2023-06-07T06:16:14.118Z,99224.38
2023-06-07T06:18:43.540Z,99223.48
2023-06-07T06:21:11.519Z,99225.88
2023-06-07T06:23:39.543Z,99228.36
2023-06-07T06:26:07.576Z,99231.23
2023-06-07T06:28:35.502Z,99234.83
2023-06-07T06:31:04.983Z,99234.48
2023-06-07T06:33:33.171Z,99231.45
2023-06-07T06:36:01.266Z,99229.25
2023-06-07T06:38:29.290Z,99229.51
2023-06-07T06:40:57.212Z,99237.20
2023-06-07T06:43:25.123Z,99237.77
2023-06-07T06:45:56.797Z,99238.18
2023-06-07T06:48:24.805Z,99241.74
2023-06-07T06:50:52.734Z,99245.82
2023-06-07T06:53:20.746Z,99245.77
2023-06-07T06:55:49.432Z,99246.11
2023-06-07T06:58:17.453Z,99249.77
2023-06-07T07:00:45.492Z,99250.65
2023-06-07T07:03:13.665Z,99251.52
2023-06-07T07:05:41.694Z,99254.73
2023-06-07T07:08:10.290Z,99250.77
2023-06-07T07:10:38.326Z,99251.99
2023-06-07T07:13:06.244Z,99252.48
2023-06-07T07:15:34.212Z,99254.20
2023-06-07T07:18:03.966Z,99256.06
2023-06-07T07:20:32.018Z,99257.31
2023-06-07T07:23:04.061Z,99257.95
2023-06-07T07:25:32.167Z,99262.38
2023-06-07T07:28:00.250Z,99262.73
2023-06-07T07:30:28.248Z,99258.93
2023-06-07T07:32:59.301Z,99261.28
2023-06-07T07:35:27.696Z,99260.75
2023-06-07T07:37:55.704Z,99261.63
2023-06-07T07:40:23.746Z,99262.71
2023-06-07T07:42:51.740Z,99266.56
2023-06-07T07:45:19.659Z,99267.02
2023-06-07T07:47:47.920Z,99268.98
2023-06-07T07:50:17.621Z,99265.48
2023-06-07T07:52:45.732Z,99266.24
2023-06-07T07:55:13.696Z,99271.52
2023-06-07T07:57:41.909Z,99273.52
2023-06-07T08:00:11.939Z,99271.25
2023-06-07T08:02:42.723Z,99269.77
2023-06-07T08:05:11.024Z,99268.11
2023-06-07T08:07:40.645Z,99264.02
2023-06-07T08:10:09.878Z,99265.98
2023-06-07T08:12:37.959Z,99267.27
2023-06-07T08:15:06.324Z,99268.45
2023-06-07T08:17:35.935Z,99272.92
2023-06-07T08:20:06.579Z,99272.02
2023-06-07T08:22:35.159Z,99270.58
2023-06-07T08:25:03.237Z,99268.30
2023-06-07T08:27:31.184Z,99268.54
2023-06-07T08:29:59.226Z,99275.09
2023-06-07T08:32:27.129Z,99276.33
2023-06-07T08:34:56.780Z,99281.85
2023-06-07T08:37:24.761Z,99282.44
2023-06-07T08:39:52.916Z,99283.65
2023-06-07T08:42:20.960Z,99280.98
2023-06-07T08:44:49.428Z,99282.34
2023-06-07T08:47:18.473Z,99283.82
2023-06-07T08:49:49.980Z,99285.08
2023-06-07T08:52:18.213Z,99285.27
2023-06-07T08:54:49.434Z,99284.26
2023-06-07T08:57:18.427Z,99282.55
2023-06-07T08:59:49.663Z,99281.77
2023-06-07T09:02:18.172Z,99282.56
2023-06-07T09:04:46.225Z,99280.66
2023-06-07T09:07:14.386Z,99279.34
2023-06-07T09:09:44.888Z,99283.64
2023-06-07T09:12:13.156Z,99281.51
2023-06-07T09:14:41.266Z,99279.03
2023-06-07T09:17:09.534Z,99284.08
2023-06-07T09:19:39.828Z,99285.30
2023-06-07T09:22:10.071Z,99283.69
2023-06-07T09:24:38.420Z,99281.29
2023-06-07T09:27:06.717Z,99281.70
2023-06-07T09:29:42.862Z,99284.41
2023-06-07T09:32:22.072Z,99287.50
2023-06-07T09:34:52.578Z,99290.36
2023-06-07T09:37:22.697Z,99292.04
2023-06-07T09:39:54.702Z,99292.33
2023-06-07T09:42:22.730Z,99290.95
2023-06-07T09:44:51.170Z,99288.63
2023-06-07T09:47:24.120Z,99289.29
2023-06-07T09:50:06.297Z,99282.30
2023-06-07T09:52:34.841Z,99279.44
2023-06-07T09:55:03.686Z,99279.25
2023-06-07T09:57:33.798Z,99279.98
2023-06-07T10:00:14.471Z,99278.21
2023-06-07T10:02:44.216Z,99281.67
2023-06-07T10:05:17.025Z,99281.19
2023-06-07T10:07:47.144Z,99283.15
2023-06-07T10:10:18.458Z,99281.02
2023-06-07T10:12:48.076Z,99281.95
2023-06-07T10:15:22.573Z,99278.83
2023-06-07T10:18:05.867Z,99283.06
2023-06-07T10:20:37.825Z,99283.33
2023-06-07T10:23:08.720Z,99285.95
2023-06-07T10:25:44.956Z,99278.22
2023-06-07T10:28:19.078Z,99279.17
2023-06-07T10:31:04.431Z,99278.06
2023-06-07T10:33:36.701Z,99274.73
2023-06-07T10:36:08.890Z,99271.91
2023-06-07T10:38:38.842Z,99268.89
2023-06-07T10:41:07.842Z,99268.73
2023-06-07T10:43:38.756Z,99268.80
2023-06-07T10:46:24.219Z,99268.23
2023-06-07T10:48:54.320Z,99264.45
2023-06-07T10:51:52.690Z,99264.92
2023-06-07T10:54:31.648Z,99264.50
2023-06-07T10:57:01.339Z,99261.39
2023-06-07T10:59:29.493Z,99257.93
2023-06-07T11:02:20.138Z,99258.03
2023-06-07T11:05:02.433Z,99252.08
2023-06-07T11:07:32.337Z,99256.49
2023-06-07T11:10:01.321Z,99256.34
2023-06-07T11:12:47.636Z,99256.23
2023-06-07T11:15:19.197Z,99253.73
2023-06-07T11:17:55.563Z,99248.89
2023-06-07T11:20:39.085Z,99245.54
2023-06-07T11:23:26.143Z,99244.85
2023-06-07T11:26:03.125Z,99243.90
2023-06-07T11:28:34.373Z,99244.21
2023-06-07T11:31:07.312Z,99244.03
2023-06-07T11:33:37.060Z,99242.41
2023-06-07T11:36:10.472Z,99243.48
2023-06-07T11:38:39.799Z,99240.98
2023-06-07T11:41:07.902Z,99239.80
2023-06-07T11:43:37.082Z,99238.17
2023-06-07T11:46:05.063Z,99234.18
2023-06-07T11:48:33.508Z,99231.49
2023-06-07T11:51:01.782Z,99227.49
2023-06-07T11:53:30.530Z,99225.96
2023-06-07T11:56:03.090Z,99223.61
2023-06-07T11:58:31.716Z,99220.06
2023-06-07T12:00:59.695Z,99214.82
2023-06-07T12:03:28.172Z,99213.31
2023-06-07T12:05:56.744Z,99214.41
2023-06-07T12:08:31.068Z,99212.19
2023-06-07T12:10:58.994Z,99208.66
2023-06-07T12:13:27.444Z,99210.46
2023-06-07T12:15:56.458Z,99206.61
2023-06-07T12:18:29.086Z,99203.14
2023-06-07T12:21:11.818Z,99198.24
2023-06-07T12:23:48.946Z,99191.23
2023-06-07T12:26:20.482Z,99191.47
2023-06-07T12:28:50.744Z,99191.89
2023-06-07T12:31:28.024Z,99186.96
2023-06-07T12:34:03.474Z,99182.04
2023-06-07T12:36:34.528Z,99177.59
2023-06-07T12:39:06.725Z,99177.05
2023-06-07T12:41:34.958Z,99181.02
2023-06-07T12:44:04.902Z,99183.42
2023-06-07T12:46:34.531Z,99182.61
2023-06-07T12:49:03.012Z,99181.45
2023-06-07T12:51:31.352Z,99174.92
2023-06-07T12:54:00.319Z,99169.34
2023-06-07T12:56:29.112Z,99165.74
2023-06-07T12:58:57.843Z,99166.11
2023-06-07T13:01:26.091Z,99167.39
2023-06-07T13:03:54.179Z,99166.36
2023-06-07T13:06:23.371Z,99168.33
2023-06-07T13:09:09.850Z,99167.44
2023-06-07T13:11:40.947Z,99167.89
2023-06-07T13:14:08.988Z,99164.64
2023-06-07T13:16:37.281Z,99159.75
2023-06-07T13:19:05.600Z,99156.86
2023-06-07T13:21:33.675Z,99158.04
2023-06-07T13:24:01.560Z,99153.83
2023-06-07T13:26:29.690Z,99151.86
2023-06-07T13:28:57.654Z,99152.02
2023-06-07T13:31:26.622Z,99146.03
2023-06-07T13:33:54.696Z,99143.58
2023-06-07T13:36:23.696Z,99142.55
2023-06-07T13:38:51.677Z,99143.88
2023-06-07T13:41:19.585Z,99142.36
2023-06-07T13:44:03.599Z,99140.91
2023-06-07T13:46:37.630Z,99137.20
2023-06-07T13:49:06.774Z,99134.63
2023-06-07T13:51:35.432Z,99129.73
2023-06-07T13:54:04.248Z,99132.29
2023-06-07T13:56:32.259Z,99132.28
2023-06-07T13:59:01.017Z,99128.41
2023-06-07T14:01:30.029Z,99126.63
2023-06-07T14:03:59.047Z,99125.65
2023-06-07T14:06:28.367Z,99127.54
2023-06-07T14:08:56.493Z,99132.18
2023-06-07T14:11:25.774Z,99131.77
2023-06-07T14:13:53.899Z,99130.83
2023-06-07T14:16:22.218Z,99128.56
2023-06-07T14:18:50.367Z,99130.09
2023-06-07T14:21:18.324Z,99124.77
2023-06-07T14:23:46.371Z,99119.45
2023-06-07T14:26:16.106Z,99111.55
2023-06-07T14:28:47.014Z,99115.15
2023-06-07T14:31:16.316Z,99118.00
2023-06-07T14:33:44.914Z,99120.00
2023-06-07T14:36:12.900Z,99118.33
2023-06-07T14:38:41.088Z,99116.23
2023-06-07T14:41:09.071Z,99117.27
2023-06-07T14:43:37.066Z,99115.50
2023-06-07T14:46:05.548Z,99118.93
2023-06-07T14:48:33.535Z,99120.52
2023-06-07T14:51:01.446Z,99120.95
2023-06-07T14:53:29.333Z,99114.19
2023-06-07T14:55:57.334Z,99119.77
2023-06-07T14:58:25.249Z,99126.54
2023-06-07T15:00:53.348Z,99118.09
2023-06-07T15:03:21.562Z,99114.40
2023-06-07T15:05:49.604Z,99125.73
2023-06-07T15:08:17.576Z,99123.02
2023-06-07T15:10:45.511Z,99130.40
2023-06-07T15:13:13.547Z,99119.31
2023-06-07T15:15:42.003Z,99120.05
2023-06-07T15:18:10.065Z,99117.79
2023-06-07T15:20:38.273Z,99120.88
2023-06-07T15:23:06.216Z,99120.52
2023-06-07T15:25:34.283Z,99123.67
2023-06-07T15:28:02.185Z,99119.88
2023-06-07T15:30:31.277Z,99119.80
2023-06-07T15:32:59.347Z,99118.21
2023-06-07T15:35:27.296Z,99114.36
2023-06-07T15:37:55.314Z,99113.94
2023-06-07T15:40:23.517Z,99112.44
2023-06-07T15:42:51.667Z,99111.98
2023-06-07T15:45:19.608Z,99113.73
2023-06-07T15:48:01.678Z,99110.38
2023-06-07T15:50:30.906Z,99111.30
2023-06-07T15:52:59.512Z,99110.27
2023-06-07T15:55:29.057Z,99105.08
2023-06-07T15:57:57.275Z,99112.05
2023-06-07T16:00:37.944Z,99109.60
2023-06-07T16:03:09.184Z,99113.90
2023-06-07T16:05:37.440Z,99110.13
2023-06-07T16:08:13.006Z,99108.95
2023-06-07T16:10:44.113Z,99102.98
2023-06-07T16:13:12.210Z,99103.34
2023-06-07T16:15:40.817Z,99104.56
2023-06-07T16:18:08.877Z,99108.73
2023-06-07T16:20:36.850Z,99100.37
2023-06-07T16:23:04.953Z,99098.95
2023-06-07T16:25:32.998Z,99093.63
2023-06-07T16:28:02.212Z,99095.48
2023-06-07T16:30:30.298Z,99098.15
2023-06-07T16:32:58.409Z,99096.88
2023-06-07T16:35:26.476Z,99092.66
2023-06-07T16:37:54.691Z,99081.58
2023-06-07T16:40:22.754Z,99080.30
2023-06-07T16:42:50.693Z,99080.30
2023-06-07T16:45:19.261Z,99084.48
2023-06-07T16:47:49.239Z,99083.61
2023-06-07T16:50:17.391Z,99086.13
2023-06-07T16:52:45.584Z,99082.70
2023-06-07T16:55:13.484Z,99088.99
2023-06-07T16:57:41.700Z,99088.58
2023-06-07T17:00:10.136Z,99090.55
2023-06-07T17:02:38.350Z,99090.37
2023-06-07T17:05:07.310Z,99086.43
2023-06-07T17:07:35.307Z,99087.40
2023-06-07T17:10:03.584Z,99090.22
2023-06-07T17:12:32.035Z,99090.50
2023-06-07T17:15:00.211Z,99092.60
2023-06-07T17:17:28.523Z,99091.35
2023-06-07T17:19:57.617Z,99085.50
2023-06-07T17:22:25.563Z,99086.81
2023-06-07T17:24:53.507Z,99079.72
2023-06-07T17:27:21.414Z,99080.82
2023-06-07T17:29:50.530Z,99079.33
2023-06-07T17:32:18.447Z,99080.33
2023-06-07T17:34:46.377Z,99080.28
2023-06-07T17:37:18.567Z,99076.11
2023-06-07T17:39:46.700Z,99076.65
2023-06-07T17:42:21.592Z,99073.20
2023-06-07T17:44:51.887Z,99073.27
2023-06-07T17:47:22.367Z,99077.98
2023-06-07T17:49:50.429Z,99080.80
2023-06-07T17:52:23.159Z,99082.84
2023-06-07T17:54:51.820Z,99083.12
2023-06-07T17:57:19.873Z,99086.23
2023-06-07T17:59:48.326Z,99086.82
2023-06-07T18:02:20.484Z,99088.15
2023-06-07T18:04:49.337Z,99091.63
2023-06-07T18:07:17.428Z,99095.58
2023-06-07T18:09:46.585Z,99097.34
2023-06-07T18:12:15.352Z,99102.20
2023-06-07T18:14:43.801Z,99101.95
2023-06-07T18:17:11.979Z,99104.05
2023-06-07T18:19:40.994Z,99100.20
2023-06-07T18:22:09.599Z,99096.73
2023-06-07T18:24:37.768Z,99096.48
2023-06-07T18:27:08.970Z,99099.16
2023-06-07T18:29:37.188Z,99096.81
2023-06-07T18:32:07.214Z,99095.89
2023-06-07T18:34:35.599Z,99090.56
2023-06-07T18:37:05.548Z,99091.84
2023-06-07T18:39:34.364Z,99097.82
2023-06-07T18:42:02.799Z,99096.03
2023-06-07T18:44:32.580Z,99101.13
2023-06-07T18:47:03.158Z,99104.34
2023-06-07T18:49:31.821Z,99103.78
2023-06-07T18:52:00.777Z,99105.38
2023-06-07T18:54:29.129Z,99112.38
2023-06-07T18:56:58.320Z,99122.86
2023-06-07T18:59:26.385Z,99145.10
2023-06-07T19:01:56.465Z,99164.71
2023-06-07T19:04:25.971Z,99174.89
2023-06-07T19:06:55.625Z,99179.31
2023-06-07T19:09:24.506Z,99164.73
2023-06-07T19:11:55.536Z,99159.23
2023-06-07T19:14:23.874Z,99166.21
2023-06-07T19:16:54.011Z,99178.79
2023-06-07T19:19:23.132Z,99188.45
2023-06-07T19:21:52.440Z,99184.77
2023-06-07T19:24:20.667Z,99183.05
2023-06-07T19:26:49.155Z,99185.88
2023-06-07T19:29:18.332Z,99192.58
2023-06-07T19:31:46.580Z,99194.59
2023-06-07T19:34:14.594Z,99191.34
2023-06-07T19:36:42.922Z,99189.17
2023-06-07T19:39:11.199Z,99183.59
2023-06-07T19:41:42.833Z,99180.10
2023-06-07T19:44:12.098Z,99180.38
2023-06-07T19:46:41.247Z,99179.53
2023-06-07T19:49:09.500Z,99177.54
2023-06-07T19:51:37.793Z,99182.26
2023-06-07T19:54:08.882Z,99186.96
2023-06-07T19:56:37.231Z,99188.79
2023-06-07T19:59:10.193Z,99190.88
2023-06-07T20:01:38.358Z,99190.45
2023-06-07T20:04:06.892Z,99181.92
2023-06-07T20:06:38.108Z,99175.96
2023-06-07T20:09:08.465Z,99172.22
2023-06-07T20:11:37.512Z,99174.23
2023-06-07T20:14:05.710Z,99172.37
2023-06-07T20:16:34.639Z,99170.34
2023-06-07T20:19:02.870Z,99169.02
2023-06-07T20:21:31.546Z,99164.68
2023-06-07T20:24:00.879Z,99161.40
2023-06-07T20:26:28.874Z,99158.08
2023-06-07T20:28:58.248Z,99160.54
2023-06-07T20:31:26.250Z,99155.67
2023-06-07T20:33:54.394Z,99152.52
2023-06-07T20:36:23.562Z,99150.01
2023-06-07T20:38:51.568Z,99149.61
2023-06-07T20:41:19.697Z,99147.89
2023-06-07T20:43:48.572Z,99147.30
2023-06-07T20:46:18.177Z,99144.64
2023-06-07T20:48:47.147Z,99147.13
2023-06-07T20:51:15.127Z,99149.16
2023-06-07T20:53:43.196Z,99151.65
2023-06-07T20:56:11.220Z,99147.00
2023-06-07T20:58:39.269Z,99147.76
2023-06-07T21:01:07.851Z,99141.74
2023-06-07T21:03:36.065Z,99146.63
2023-06-07T21:06:04.919Z,99147.98
2023-06-07T21:08:32.863Z,99150.29
2023-06-07T21:11:00.897Z,99154.58
2023-06-07T21:13:28.950Z,99159.80
2023-06-07T21:15:56.952Z,99158.56
2023-06-07T21:18:25.672Z,99155.77
2023-06-07T21:20:53.599Z,99153.09
2023-06-07T21:23:21.661Z,99147.52
2023-06-07T21:25:49.819Z,99149.44
2023-06-07T21:28:17.727Z,99154.13
2023-06-07T21:30:46.182Z,99153.84
2023-06-07T21:33:14.168Z,99158.48
2023-06-07T21:35:42.071Z,99159.33
2023-06-07T21:38:10.039Z,99155.30
2023-06-07T21:40:39.596Z,99149.52
2023-06-07T21:43:07.519Z,99147.12
2023-06-07T21:45:35.546Z,99146.30
2023-06-07T21:48:03.767Z,99145.67
2023-06-07T21:50:31.868Z,99144.44
2023-06-07T21:52:59.987Z,99142.16
2023-06-07T21:55:27.915Z,99140.02
2023-06-07T21:57:56.190Z,99138.40
2023-06-07T22:00:25.316Z,99140.94
2023-06-07T22:02:53.368Z,99144.30
2023-06-07T22:05:21.550Z,99143.05
2023-06-07T22:07:49.494Z,99146.80
2023-06-07T22:10:17.452Z,99146.66
2023-06-07T22:12:45.642Z,99147.27
2023-06-07T22:15:13.862Z,99145.19
2023-06-07T22:17:43.405Z,99145.80
2023-06-07T22:20:11.853Z,99141.29
2023-06-07T22:22:39.811Z,99140.20
2023-06-07T22:25:07.966Z,99138.65
2023-06-07T22:27:36.170Z,99139.11
2023-06-07T22:30:05.870Z,99137.59
2023-06-07T22:32:34.087Z,99138.61
2023-06-07T22:35:05.703Z,99137.56
2023-06-07T22:37:34.728Z,99136.15
2023-06-07T22:40:07.576Z,99132.22
2023-06-07T22:42:36.755Z,99130.60
2023-06-07T22:45:05.210Z,99128.99
2023-06-07T22:47:33.783Z,99127.13
2023-06-07T22:50:02.543Z,99127.74
2023-06-07T22:52:33.878Z,99126.42
2023-06-07T22:55:02.119Z,99128.45
2023-06-07T22:57:32.130Z,99128.79
2023-06-07T23:00:00.227Z,99130.87
2023-06-07T23:02:29.932Z,99124.88
2023-06-07T23:04:58.382Z,99123.89
2023-06-07T23:07:26.458Z,99125.38
2023-06-07T23:09:58.036Z,99130.77
2023-06-07T23:12:26.052Z,99123.61
2023-06-07T23:14:54.069Z,99124.90
2023-06-07T23:17:22.388Z,99124.73
2023-06-07T23:19:51.372Z,99128.04
2023-06-07T23:22:20.455Z,99129.70
2023-06-07T23:24:49.135Z,99130.30
2023-06-07T23:27:17.465Z,99132.48
2023-06-07T23:29:45.555Z,99130.56
2023-06-07T23:32:13.731Z,99128.67
2023-06-07T23:34:42.023Z,99126.70
2023-06-07T23:37:10.512Z,99126.33
2023-06-07T23:39:38.533Z,99125.36
2023-06-07T23:42:06.820Z,99126.04
2023-06-07T23:44:35.027Z,99124.12
2023-06-07T23:47:03.082Z,99125.34
2023-06-07T23:49:35.504Z,99127.15
2023-06-07T23:52:04.238Z,99126.64
2023-06-07T23:54:32.239Z,99126.05
2023-06-07T23:57:00.371Z,99126.16
2023-06-07T23:59:29.484Z,99124.55
